sensor_id;sensor_type;location;lat;lon;timestamp;temperature;humidity
9151;DHT22;4610;50.006;7.490;2023-02-08T00:00:13;-3.40;99.90
9151;DHT22;4610;50.006;7.490;2023-02-08T00:02:41;-3.50;99.90
9151;DHT22;4610;50.006;7.490;2023-02-08T00:05:08;-3.40;99.90
9151;DHT22;4610;50.006;7.490;2023-02-08T00:07:35;-3.40;99.90
9151;DHT22;4610;50.006;7.490;2023-02-08T00:10:03;-3.40;99.90
9151;DHT22;4610;50.006;7.490;2023-02-08T00:12:31;-3.40;99.90
9151;DHT22;4610;50.006;7.490;2023-02-08T00:14:58;-3.40;99.90
9151;DHT22;4610;50.006;7.490;2023-02-08T00:17:25;-3.40;99.90
9151;DHT22;4610;50.006;7.490;2023-02-08T00:19:51;-3.40;99.90
9151;DHT22;4610;50.006;7.490;2023-02-08T00:22:18;-3.40;99.90
9151;DHT22;4610;50.006;7.490;2023-02-08T00:24:45;-3.50;99.90
9151;DHT22;4610;50.006;7.490;2023-02-08T00:27:13;-3.50;99.90
9151;DHT22;4610;50.006;7.490;2023-02-08T00:29:40;-3.50;99.90
9151;DHT22;4610;50.006;7.490;2023-02-08T00:32:07;-3.40;99.90
9151;DHT22;4610;50.006;7.490;2023-02-08T00:34:35;-3.30;99.90
9151;DHT22;4610;50.006;7.490;2023-02-08T00:37:01;-3.20;99.90
9151;DHT22;4610;50.006;7.490;2023-02-08T00:39:28;-3.10;99.90
9151;DHT22;4610;50.006;7.490;2023-02-08T00:41:56;-3.10;99.90
9151;DHT22;4610;50.006;7.490;2023-02-08T00:44:24;-3.10;99.90
9151;DHT22;4610;50.006;7.490;2023-02-08T00:46:51;-3.20;99.90
9151;DHT22;4610;50.006;7.490;2023-02-08T00:49:18;-3.30;99.90
9151;DHT22;4610;50.006;7.490;2023-02-08T00:51:45;-3.20;99.90
9151;DHT22;4610;50.006;7.490;2023-02-08T00:54:13;-3.30;99.90
9151;DHT22;4610;50.006;7.490;2023-02-08T00:56:41;-3.40;99.90
9151;DHT22;4610;50.006;7.490;2023-02-08T00:59:07;-3.50;99.90
9151;DHT22;4610;50.006;7.490;2023-02-08T01:01:36;-3.50;99.90
9151;DHT22;4610;50.006;7.490;2023-02-08T01:04:03;-3.60;99.90
9151;DHT22;4610;50.006;7.490;2023-02-08T01:06:30;-3.70;99.90
9151;DHT22;4610;50.006;7.490;2023-02-08T01:08:57;-3.80;99.90
9151;DHT22;4610;50.006;7.490;2023-02-08T01:11:25;-3.70;99.90
9151;DHT22;4610;50.006;7.490;2023-02-08T01:13:54;-3.60;99.90
9151;DHT22;4610;50.006;7.490;2023-02-08T01:16:24;-3.50;99.90
9151;DHT22;4610;50.006;7.490;2023-02-08T01:18:56;-3.50;99.90
9151;DHT22;4610;50.006;7.490;2023-02-08T01:21:26;-3.50;99.90
9151;DHT22;4610;50.006;7.490;2023-02-08T01:23:53;-3.50;99.90
9151;DHT22;4610;50.006;7.490;2023-02-08T01:26:21;-3.40;99.90
9151;DHT22;4610;50.006;7.490;2023-02-08T01:28:49;-3.50;99.90
9151;DHT22;4610;50.006;7.490;2023-02-08T01:31:20;-3.40;99.90
9151;DHT22;4610;50.006;7.490;2023-02-08T01:33:47;-3.30;99.90
9151;DHT22;4610;50.006;7.490;2023-02-08T01:36:16;-3.30;99.90
9151;DHT22;4610;50.006;7.490;2023-02-08T01:38:43;-3.20;99.90
9151;DHT22;4610;50.006;7.490;2023-02-08T01:41:20;-3.10;99.90
9151;DHT22;4610;50.006;7.490;2023-02-08T01:44:05;-3.10;99.90
9151;DHT22;4610;50.006;7.490;2023-02-08T01:46:34;-3.10;99.90
9151;DHT22;4610;50.006;7.490;2023-02-08T01:49:04;-3.20;99.90
9151;DHT22;4610;50.006;7.490;2023-02-08T01:51:36;-3.20;99.90
9151;DHT22;4610;50.006;7.490;2023-02-08T01:54:05;-3.20;99.90
9151;DHT22;4610;50.006;7.490;2023-02-08T01:56:36;-3.10;99.90
9151;DHT22;4610;50.006;7.490;2023-02-08T01:59:08;-2.90;99.90
9151;DHT22;4610;50.006;7.490;2023-02-08T02:01:37;-2.70;99.90
9151;DHT22;4610;50.006;7.490;2023-02-08T02:04:06;-2.70;99.90
9151;DHT22;4610;50.006;7.490;2023-02-08T02:06:39;-2.80;99.90
9151;DHT22;4610;50.006;7.490;2023-02-08T02:09:19;-2.90;99.90
9151;DHT22;4610;50.006;7.490;2023-02-08T02:11:49;-2.80;99.90
9151;DHT22;4610;50.006;7.490;2023-02-08T02:14:16;-2.80;99.90
9151;DHT22;4610;50.006;7.490;2023-02-08T02:16:43;-2.80;99.90
9151;DHT22;4610;50.006;7.490;2023-02-08T02:19:14;-2.70;99.90
9151;DHT22;4610;50.006;7.490;2023-02-08T02:21:56;-2.60;99.90
9151;DHT22;4610;50.006;7.490;2023-02-08T02:24:52;-2.50;99.90
9151;DHT22;4610;50.006;7.490;2023-02-08T02:27:30;-2.50;99.90
9151;DHT22;4610;50.006;7.490;2023-02-08T02:30:36;-2.60;99.90
9151;DHT22;4610;50.006;7.490;2023-02-08T02:33:28;-2.70;99.90
9151;DHT22;4610;50.006;7.490;2023-02-08T02:36:01;-2.60;99.90
9151;DHT22;4610;50.006;7.490;2023-02-08T02:38:39;-2.70;99.90
9151;DHT22;4610;50.006;7.490;2023-02-08T02:41:14;-2.70;99.90
9151;DHT22;4610;50.006;7.490;2023-02-08T02:44:06;-2.80;99.90
9151;DHT22;4610;50.006;7.490;2023-02-08T02:46:38;-2.90;99.90
9151;DHT22;4610;50.006;7.490;2023-02-08T02:49:11;-3.10;99.90
9151;DHT22;4610;50.006;7.490;2023-02-08T02:51:44;-3.10;99.90
9151;DHT22;4610;50.006;7.490;2023-02-08T02:54:14;-3.30;99.90
9151;DHT22;4610;50.006;7.490;2023-02-08T02:56:44;-3.30;99.90
9151;DHT22;4610;50.006;7.490;2023-02-08T02:59:14;-3.40;99.90
9151;DHT22;4610;50.006;7.490;2023-02-08T03:01:43;-3.50;99.90
9151;DHT22;4610;50.006;7.490;2023-02-08T03:04:15;-3.40;99.90
9151;DHT22;4610;50.006;7.490;2023-02-08T03:06:52;-3.40;99.90
9151;DHT22;4610;50.006;7.490;2023-02-08T03:09:39;-3.40;99.90
9151;DHT22;4610;50.006;7.490;2023-02-08T03:12:22;-3.40;99.90
9151;DHT22;4610;50.006;7.490;2023-02-08T03:14:57;-3.50;99.90
9151;DHT22;4610;50.006;7.490;2023-02-08T03:17:33;-3.70;99.90
9151;DHT22;4610;50.006;7.490;2023-02-08T03:20:09;-3.80;99.90
9151;DHT22;4610;50.006;7.490;2023-02-08T03:22:43;-3.80;99.90
9151;DHT22;4610;50.006;7.490;2023-02-08T03:25:16;-3.90;99.90
9151;DHT22;4610;50.006;7.490;2023-02-08T03:27:51;-4.00;99.90
9151;DHT22;4610;50.006;7.490;2023-02-08T03:30:23;-3.90;99.90
9151;DHT22;4610;50.006;7.490;2023-02-08T03:32:56;-4.00;99.90
9151;DHT22;4610;50.006;7.490;2023-02-08T03:35:28;-4.00;99.90
9151;DHT22;4610;50.006;7.490;2023-02-08T03:37:59;-4.00;99.90
9151;DHT22;4610;50.006;7.490;2023-02-08T03:40:30;-4.00;99.90
9151;DHT22;4610;50.006;7.490;2023-02-08T03:43:01;-4.00;99.90
9151;DHT22;4610;50.006;7.490;2023-02-08T03:45:31;-4.00;99.90
9151;DHT22;4610;50.006;7.490;2023-02-08T03:48:02;-4.10;99.90
9151;DHT22;4610;50.006;7.490;2023-02-08T03:50:35;-4.10;99.90
9151;DHT22;4610;50.006;7.490;2023-02-08T03:53:03;-4.10;99.90
9151;DHT22;4610;50.006;7.490;2023-02-08T03:55:33;-4.10;99.90
9151;DHT22;4610;50.006;7.490;2023-02-08T03:58:05;-4.10;99.90
9151;DHT22;4610;50.006;7.490;2023-02-08T04:00:36;-4.00;99.90
9151;DHT22;4610;50.006;7.490;2023-02-08T04:03:07;-4.00;99.90
9151;DHT22;4610;50.006;7.490;2023-02-08T04:05:37;-4.00;99.90
9151;DHT22;4610;50.006;7.490;2023-02-08T04:08:04;-4.10;99.90
9151;DHT22;4610;50.006;7.490;2023-02-08T04:10:31;-4.10;99.90
9151;DHT22;4610;50.006;7.490;2023-02-08T04:12:58;-4.10;99.90
9151;DHT22;4610;50.006;7.490;2023-02-08T04:15:25;-4.10;99.90
9151;DHT22;4610;50.006;7.490;2023-02-08T04:17:52;-4.10;99.90
9151;DHT22;4610;50.006;7.490;2023-02-08T04:20:19;-4.00;99.90
9151;DHT22;4610;50.006;7.490;2023-02-08T04:22:47;-4.10;99.90
9151;DHT22;4610;50.006;7.490;2023-02-08T04:25:14;-4.20;99.90
9151;DHT22;4610;50.006;7.490;2023-02-08T04:27:41;-4.20;99.90
9151;DHT22;4610;50.006;7.490;2023-02-08T04:30:09;-4.20;99.90
9151;DHT22;4610;50.006;7.490;2023-02-08T04:32:36;-4.30;99.90
9151;DHT22;4610;50.006;7.490;2023-02-08T04:35:03;-4.30;99.90
9151;DHT22;4610;50.006;7.490;2023-02-08T04:37:31;-4.30;99.90
9151;DHT22;4610;50.006;7.490;2023-02-08T04:39:59;-4.30;99.90
9151;DHT22;4610;50.006;7.490;2023-02-08T04:42:26;-4.30;99.90
9151;DHT22;4610;50.006;7.490;2023-02-08T04:44:53;-4.30;99.90
9151;DHT22;4610;50.006;7.490;2023-02-08T04:47:20;-4.20;99.90
9151;DHT22;4610;50.006;7.490;2023-02-08T04:49:47;-4.20;99.90
9151;DHT22;4610;50.006;7.490;2023-02-08T04:52:13;-4.10;99.90
9151;DHT22;4610;50.006;7.490;2023-02-08T04:54:40;-4.00;99.90
9151;DHT22;4610;50.006;7.490;2023-02-08T04:57:11;-3.90;99.90
9151;DHT22;4610;50.006;7.490;2023-02-08T04:59:38;-3.80;99.90
9151;DHT22;4610;50.006;7.490;2023-02-08T05:02:05;-3.70;99.90
9151;DHT22;4610;50.006;7.490;2023-02-08T05:04:32;-3.70;99.90
9151;DHT22;4610;50.006;7.490;2023-02-08T05:06:59;-3.70;99.90
9151;DHT22;4610;50.006;7.490;2023-02-08T05:09:25;-3.60;99.90
9151;DHT22;4610;50.006;7.490;2023-02-08T05:11:52;-3.60;99.90
9151;DHT22;4610;50.006;7.490;2023-02-08T05:14:20;-3.60;99.90
9151;DHT22;4610;50.006;7.490;2023-02-08T05:16:47;-3.50;99.90
9151;DHT22;4610;50.006;7.490;2023-02-08T05:19:14;-3.50;99.90
9151;DHT22;4610;50.006;7.490;2023-02-08T05:21:41;-3.50;99.90
9151;DHT22;4610;50.006;7.490;2023-02-08T05:24:07;-3.40;99.90
9151;DHT22;4610;50.006;7.490;2023-02-08T05:26:37;-3.40;99.90
9151;DHT22;4610;50.006;7.490;2023-02-08T05:29:04;-3.30;99.90
9151;DHT22;4610;50.006;7.490;2023-02-08T05:31:32;-3.30;99.90
9151;DHT22;4610;50.006;7.490;2023-02-08T05:33:58;-3.20;99.90
9151;DHT22;4610;50.006;7.490;2023-02-08T05:36:26;-3.20;99.90
9151;DHT22;4610;50.006;7.490;2023-02-08T05:38:52;-3.20;99.90
9151;DHT22;4610;50.006;7.490;2023-02-08T05:41:19;-3.30;99.90
9151;DHT22;4610;50.006;7.490;2023-02-08T05:43:46;-3.30;99.90
9151;DHT22;4610;50.006;7.490;2023-02-08T05:46:13;-3.30;99.90
9151;DHT22;4610;50.006;7.490;2023-02-08T05:48:41;-3.30;99.90
9151;DHT22;4610;50.006;7.490;2023-02-08T05:51:08;-3.40;99.90
9151;DHT22;4610;50.006;7.490;2023-02-08T05:53:35;-3.50;99.90
9151;DHT22;4610;50.006;7.490;2023-02-08T05:56:02;-3.50;99.90
9151;DHT22;4610;50.006;7.490;2023-02-08T05:58:29;-3.40;99.90
9151;DHT22;4610;50.006;7.490;2023-02-08T06:00:55;-3.30;99.90
9151;DHT22;4610;50.006;7.490;2023-02-08T06:03:22;-3.20;99.90
9151;DHT22;4610;50.006;7.490;2023-02-08T06:05:51;-3.20;99.90
9151;DHT22;4610;50.006;7.490;2023-02-08T06:08:18;-3.20;99.90
9151;DHT22;4610;50.006;7.490;2023-02-08T06:10:47;-3.20;99.90
9151;DHT22;4610;50.006;7.490;2023-02-08T06:13:14;-3.20;99.90
9151;DHT22;4610;50.006;7.490;2023-02-08T06:15:41;-3.20;99.90
9151;DHT22;4610;50.006;7.490;2023-02-08T06:18:08;-3.20;99.90
9151;DHT22;4610;50.006;7.490;2023-02-08T06:20:35;-3.20;99.90
9151;DHT22;4610;50.006;7.490;2023-02-08T06:23:03;-3.20;99.90
9151;DHT22;4610;50.006;7.490;2023-02-08T06:25:30;-3.10;99.90
9151;DHT22;4610;50.006;7.490;2023-02-08T06:27:57;-3.10;99.90
9151;DHT22;4610;50.006;7.490;2023-02-08T06:30:24;-3.00;99.90
9151;DHT22;4610;50.006;7.490;2023-02-08T06:32:51;-3.10;99.90
9151;DHT22;4610;50.006;7.490;2023-02-08T06:35:18;-3.00;99.90
9151;DHT22;4610;50.006;7.490;2023-02-08T06:37:45;-3.00;99.90
9151;DHT22;4610;50.006;7.490;2023-02-08T06:40:13;-3.00;99.90
9151;DHT22;4610;50.006;7.490;2023-02-08T06:42:40;-2.90;99.90
9151;DHT22;4610;50.006;7.490;2023-02-08T06:45:07;-2.20;99.90
9151;DHT22;4610;50.006;7.490;2023-02-08T06:47:34;-2.20;99.90
9151;DHT22;4610;50.006;7.490;2023-02-08T06:50:01;-2.40;99.90
9151;DHT22;4610;50.006;7.490;2023-02-08T06:52:28;-2.50;99.90
9151;DHT22;4610;50.006;7.490;2023-02-08T06:54:55;-2.60;99.90
9151;DHT22;4610;50.006;7.490;2023-02-08T06:57:23;-2.60;99.90
9151;DHT22;4610;50.006;7.490;2023-02-08T06:59:50;-2.70;99.90
9151;DHT22;4610;50.006;7.490;2023-02-08T07:02:18;-2.80;99.90
9151;DHT22;4610;50.006;7.490;2023-02-08T07:04:45;-3.00;99.90
9151;DHT22;4610;50.006;7.490;2023-02-08T07:07:12;-3.00;99.90
9151;DHT22;4610;50.006;7.490;2023-02-08T07:12:08;-2.80;99.90
9151;DHT22;4610;50.006;7.490;2023-02-08T07:14:38;-2.40;99.90
9151;DHT22;4610;50.006;7.490;2023-02-08T07:17:06;-1.70;99.90
9151;DHT22;4610;50.006;7.490;2023-02-08T07:19:33;-1.20;99.90
9151;DHT22;4610;50.006;7.490;2023-02-08T07:22:00;-0.80;99.90
9151;DHT22;4610;50.006;7.490;2023-02-08T07:24:29;-0.50;99.90
9151;DHT22;4610;50.006;7.490;2023-02-08T07:26:56;-0.20;99.90
9151;DHT22;4610;50.006;7.490;2023-02-08T07:29:23;0.60;99.90
9151;DHT22;4610;50.006;7.490;2023-02-08T07:31:51;1.40;99.90
9151;DHT22;4610;50.006;7.490;2023-02-08T07:34:17;2.30;99.90
9151;DHT22;4610;50.006;7.490;2023-02-08T07:36:46;2.10;99.90
9151;DHT22;4610;50.006;7.490;2023-02-08T07:39:13;2.10;99.90
9151;DHT22;4610;50.006;7.490;2023-02-08T07:41:39;2.20;99.90
9151;DHT22;4610;50.006;7.490;2023-02-08T07:44:06;2.40;99.90
9151;DHT22;4610;50.006;7.490;2023-02-08T07:46:33;2.50;99.90
9151;DHT22;4610;50.006;7.490;2023-02-08T07:49:01;2.70;99.90
9151;DHT22;4610;50.006;7.490;2023-02-08T07:51:28;2.80;99.90
9151;DHT22;4610;50.006;7.490;2023-02-08T07:53:54;3.10;99.90
9151;DHT22;4610;50.006;7.490;2023-02-08T07:56:21;3.70;99.50
9151;DHT22;4610;50.006;7.490;2023-02-08T07:58:48;4.10;98.20
9151;DHT22;4610;50.006;7.490;2023-02-08T08:01:15;4.20;97.70
9151;DHT22;4610;50.006;7.490;2023-02-08T08:03:42;4.20;96.80
9151;DHT22;4610;50.006;7.490;2023-02-08T08:06:10;4.30;97.40
9151;DHT22;4610;50.006;7.490;2023-02-08T08:08:36;4.60;97.40
9151;DHT22;4610;50.006;7.490;2023-02-08T08:11:04;5.20;96.20
9151;DHT22;4610;50.006;7.490;2023-02-08T08:13:31;6.00;94.70
9151;DHT22;4610;50.006;7.490;2023-02-08T08:15:57;7.00;92.90
9151;DHT22;4610;50.006;7.490;2023-02-08T08:18:24;7.40;91.50
9151;DHT22;4610;50.006;7.490;2023-02-08T08:20:51;7.70;91.10
9151;DHT22;4610;50.006;7.490;2023-02-08T08:23:19;8.40;89.70
9151;DHT22;4610;50.006;7.490;2023-02-08T08:25:46;9.00;87.80
9151;DHT22;4610;50.006;7.490;2023-02-08T08:28:12;9.00;85.30
9151;DHT22;4610;50.006;7.490;2023-02-08T08:30:41;9.30;84.70
9151;DHT22;4610;50.006;7.490;2023-02-08T08:33:08;9.20;83.80
9151;DHT22;4610;50.006;7.490;2023-02-08T08:35:35;9.60;82.00
9151;DHT22;4610;50.006;7.490;2023-02-08T08:38:02;9.20;83.00
9151;DHT22;4610;50.006;7.490;2023-02-08T08:40:30;9.20;81.40
9151;DHT22;4610;50.006;7.490;2023-02-08T08:42:57;9.60;81.00
9151;DHT22;4610;50.006;7.490;2023-02-08T08:47:51;9.80;79.00
9151;DHT22;4610;50.006;7.490;2023-02-08T08:50:18;10.20;79.10
9151;DHT22;4610;50.006;7.490;2023-02-08T08:52:44;10.10;76.20
9151;DHT22;4610;50.006;7.490;2023-02-08T08:55:11;10.00;76.50
9151;DHT22;4610;50.006;7.490;2023-02-08T08:57:39;9.90;76.60
9151;DHT22;4610;50.006;7.490;2023-02-08T09:00:07;10.00;74.80
9151;DHT22;4610;50.006;7.490;2023-02-08T09:02:34;9.90;77.40
9151;DHT22;4610;50.006;7.490;2023-02-08T09:05:01;10.30;75.90
9151;DHT22;4610;50.006;7.490;2023-02-08T09:07:30;10.50;75.20
9151;DHT22;4610;50.006;7.490;2023-02-08T09:09:56;10.90;73.80
9151;DHT22;4610;50.006;7.490;2023-02-08T09:12:23;10.80;74.20
9151;DHT22;4610;50.006;7.490;2023-02-08T09:14:51;10.60;72.20
9151;DHT22;4610;50.006;7.490;2023-02-08T09:17:18;10.40;74.80
9151;DHT22;4610;50.006;7.490;2023-02-08T09:19:44;10.60;73.40
9151;DHT22;4610;50.006;7.490;2023-02-08T09:22:12;10.50;73.60
9151;DHT22;4610;50.006;7.490;2023-02-08T09:24:39;10.20;72.50
9151;DHT22;4610;50.006;7.490;2023-02-08T09:27:06;9.90;73.70
9151;DHT22;4610;50.006;7.490;2023-02-08T09:29:32;9.80;73.30
9151;DHT22;4610;50.006;7.490;2023-02-08T09:32:01;9.60;73.40
9151;DHT22;4610;50.006;7.490;2023-02-08T09:34:29;9.50;72.80
9151;DHT22;4610;50.006;7.490;2023-02-08T09:36:55;9.40;73.20
9151;DHT22;4610;50.006;7.490;2023-02-08T09:39:23;9.50;74.90
9151;DHT22;4610;50.006;7.490;2023-02-08T09:42:19;9.30;74.20
9151;DHT22;4610;50.006;7.490;2023-02-08T09:44:58;9.20;73.80
9151;DHT22;4610;50.006;7.490;2023-02-08T09:47:32;9.30;73.10
9151;DHT22;4610;50.006;7.490;2023-02-08T09:50:03;9.00;73.30
9151;DHT22;4610;50.006;7.490;2023-02-08T09:52:36;8.90;74.90
9151;DHT22;4610;50.006;7.490;2023-02-08T09:55:16;9.10;76.60
9151;DHT22;4610;50.006;7.490;2023-02-08T09:57:46;9.20;76.00
9151;DHT22;4610;50.006;7.490;2023-02-08T10:00:18;9.00;74.10
9151;DHT22;4610;50.006;7.490;2023-02-08T10:02:48;8.70;73.70
9151;DHT22;4610;50.006;7.490;2023-02-08T10:05:20;8.60;76.00
9151;DHT22;4610;50.006;7.490;2023-02-08T10:07:47;8.60;76.80
9151;DHT22;4610;50.006;7.490;2023-02-08T10:10:18;8.80;74.80
9151;DHT22;4610;50.006;7.490;2023-02-08T10:12:52;8.90;72.20
9151;DHT22;4610;50.006;7.490;2023-02-08T10:15:31;8.70;72.30
9151;DHT22;4610;50.006;7.490;2023-02-08T10:18:30;8.40;72.90
9151;DHT22;4610;50.006;7.490;2023-02-08T10:21:09;8.60;72.50
9151;DHT22;4610;50.006;7.490;2023-02-08T10:24:00;8.30;74.60
9151;DHT22;4610;50.006;7.490;2023-02-08T10:26:35;8.50;73.20
9151;DHT22;4610;50.006;7.490;2023-02-08T10:29:26;8.70;72.90
9151;DHT22;4610;50.006;7.490;2023-02-08T10:32:19;8.70;72.10
9151;DHT22;4610;50.006;7.490;2023-02-08T10:34:53;8.70;71.30
9151;DHT22;4610;50.006;7.490;2023-02-08T10:37:27;8.40;68.50
9151;DHT22;4610;50.006;7.490;2023-02-08T10:39:55;8.00;71.60
9151;DHT22;4610;50.006;7.490;2023-02-08T10:42:23;7.90;72.60
9151;DHT22;4610;50.006;7.490;2023-02-08T10:44:59;7.40;71.70
9151;DHT22;4610;50.006;7.490;2023-02-08T10:47:37;7.00;73.00
9151;DHT22;4610;50.006;7.490;2023-02-08T10:50:14;6.70;74.40
9151;DHT22;4610;50.006;7.490;2023-02-08T10:52:44;6.70;74.00
9151;DHT22;4610;50.006;7.490;2023-02-08T10:55:13;6.60;74.90
9151;DHT22;4610;50.006;7.490;2023-02-08T10:57:41;6.50;74.20
9151;DHT22;4610;50.006;7.490;2023-02-08T11:00:12;6.30;76.10
9151;DHT22;4610;50.006;7.490;2023-02-08T11:02:41;5.90;75.50
9151;DHT22;4610;50.006;7.490;2023-02-08T11:05:12;5.70;77.30
9151;DHT22;4610;50.006;7.490;2023-02-08T11:07:40;5.80;76.00
9151;DHT22;4610;50.006;7.490;2023-02-08T11:10:20;5.80;76.00
9151;DHT22;4610;50.006;7.490;2023-02-08T11:12:55;5.70;76.10
9151;DHT22;4610;50.006;7.490;2023-02-08T11:15:24;5.50;78.70
9151;DHT22;4610;50.006;7.490;2023-02-08T11:17:57;5.60;81.30
9151;DHT22;4610;50.006;7.490;2023-02-08T11:20:31;5.60;79.80
9151;DHT22;4610;50.006;7.490;2023-02-08T11:22:59;5.40;79.10
9151;DHT22;4610;50.006;7.490;2023-02-08T11:25:32;5.10;78.80
9151;DHT22;4610;50.006;7.490;2023-02-08T11:27:59;5.20;79.20
9151;DHT22;4610;50.006;7.490;2023-02-08T11:30:26;5.40;78.10
9151;DHT22;4610;50.006;7.490;2023-02-08T11:33:15;5.30;79.30
9151;DHT22;4610;50.006;7.490;2023-02-08T11:35:56;5.20;78.70
9151;DHT22;4610;50.006;7.490;2023-02-08T11:38:24;5.10;77.70
9151;DHT22;4610;50.006;7.490;2023-02-08T11:40:54;4.90;77.70
9151;DHT22;4610;50.006;7.490;2023-02-08T11:43:26;4.90;78.90
9151;DHT22;4610;50.006;7.490;2023-02-08T11:45:54;4.70;79.20
9151;DHT22;4610;50.006;7.490;2023-02-08T11:48:24;4.70;80.40
9151;DHT22;4610;50.006;7.490;2023-02-08T11:50:55;4.70;78.10
9151;DHT22;4610;50.006;7.490;2023-02-08T11:53:27;4.60;76.90
9151;DHT22;4610;50.006;7.490;2023-02-08T11:56:02;4.60;78.50
9151;DHT22;4610;50.006;7.490;2023-02-08T11:58:29;4.60;81.80
9151;DHT22;4610;50.006;7.490;2023-02-08T12:00:58;4.60;81.60
9151;DHT22;4610;50.006;7.490;2023-02-08T12:03:27;4.60;83.50
9151;DHT22;4610;50.006;7.490;2023-02-08T12:06:12;4.70;88.20
9151;DHT22;4610;50.006;7.490;2023-02-08T12:08:50;5.30;90.00
9151;DHT22;4610;50.006;7.490;2023-02-08T12:11:21;5.00;88.10
9151;DHT22;4610;50.006;7.490;2023-02-08T12:14:03;4.80;87.80
9151;DHT22;4610;50.006;7.490;2023-02-08T12:16:50;4.80;86.50
9151;DHT22;4610;50.006;7.490;2023-02-08T12:19:41;4.90;86.20
9151;DHT22;4610;50.006;7.490;2023-02-08T12:22:19;4.90;88.30
9151;DHT22;4610;50.006;7.490;2023-02-08T12:24:51;4.90;90.10
9151;DHT22;4610;50.006;7.490;2023-02-08T12:27:32;4.70;88.00
9151;DHT22;4610;50.006;7.490;2023-02-08T12:30:07;4.60;86.50
9151;DHT22;4610;50.006;7.490;2023-02-08T12:33:03;4.60;90.40
9151;DHT22;4610;50.006;7.490;2023-02-08T12:35:49;4.40;86.50
9151;DHT22;4610;50.006;7.490;2023-02-08T12:38:28;4.30;83.20
9151;DHT22;4610;50.006;7.490;2023-02-08T12:41:21;4.20;85.80
9151;DHT22;4610;50.006;7.490;2023-02-08T12:43:53;4.00;82.20
9151;DHT22;4610;50.006;7.490;2023-02-08T12:46:49;3.90;85.10
9151;DHT22;4610;50.006;7.490;2023-02-08T12:49:34;3.90;82.10
9151;DHT22;4610;50.006;7.490;2023-02-08T12:52:15;3.80;81.20
9151;DHT22;4610;50.006;7.490;2023-02-08T12:54:47;3.80;81.60
9151;DHT22;4610;50.006;7.490;2023-02-08T12:57:17;3.70;80.60
9151;DHT22;4610;50.006;7.490;2023-02-08T12:59:47;3.70;79.90
9151;DHT22;4610;50.006;7.490;2023-02-08T13:02:18;3.60;79.70
9151;DHT22;4610;50.006;7.490;2023-02-08T13:04:50;3.60;81.90
9151;DHT22;4610;50.006;7.490;2023-02-08T13:07:21;3.60;80.50
9151;DHT22;4610;50.006;7.490;2023-02-08T13:09:57;3.60;84.10
9151;DHT22;4610;50.006;7.490;2023-02-08T13:12:29;3.60;83.50
9151;DHT22;4610;50.006;7.490;2023-02-08T13:15:02;3.60;85.00
9151;DHT22;4610;50.006;7.490;2023-02-08T13:17:40;3.60;83.60
9151;DHT22;4610;50.006;7.490;2023-02-08T13:20:19;3.60;85.10
9151;DHT22;4610;50.006;7.490;2023-02-08T13:22:49;3.70;84.10
9151;DHT22;4610;50.006;7.490;2023-02-08T13:25:25;3.70;83.70
9151;DHT22;4610;50.006;7.490;2023-02-08T13:27:53;3.70;84.60
9151;DHT22;4610;50.006;7.490;2023-02-08T13:30:21;3.60;82.40
9151;DHT22;4610;50.006;7.490;2023-02-08T13:32:49;3.60;80.50
9151;DHT22;4610;50.006;7.490;2023-02-08T13:35:20;3.60;82.40
9151;DHT22;4610;50.006;7.490;2023-02-08T13:37:51;3.70;85.70
9151;DHT22;4610;50.006;7.490;2023-02-08T13:40:25;3.70;81.80
9151;DHT22;4610;50.006;7.490;2023-02-08T13:42:57;3.60;83.60
9151;DHT22;4610;50.006;7.490;2023-02-08T13:45:28;3.70;83.10
9151;DHT22;4610;50.006;7.490;2023-02-08T13:47:56;3.70;82.70
9151;DHT22;4610;50.006;7.490;2023-02-08T13:50:46;3.60;83.50
9151;DHT22;4610;50.006;7.490;2023-02-08T13:53:13;3.70;83.50
9151;DHT22;4610;50.006;7.490;2023-02-08T13:55:56;3.60;81.70
9151;DHT22;4610;50.006;7.490;2023-02-08T14:01:18;3.60;79.50
9151;DHT22;4610;50.006;7.490;2023-02-08T14:06:55;3.50;83.70
9151;DHT22;4610;50.006;7.490;2023-02-08T14:09:27;3.50;85.70
9151;DHT22;4610;50.006;7.490;2023-02-08T14:12:02;3.60;86.70
9151;DHT22;4610;50.006;7.490;2023-02-08T14:14:33;3.50;86.50
9151;DHT22;4610;50.006;7.490;2023-02-08T14:17:14;3.50;87.00
9151;DHT22;4610;50.006;7.490;2023-02-08T14:19:44;3.50;86.20
9151;DHT22;4610;50.006;7.490;2023-02-08T14:22:16;3.50;87.90
9151;DHT22;4610;50.006;7.490;2023-02-08T14:24:46;3.50;86.50
9151;DHT22;4610;50.006;7.490;2023-02-08T14:27:21;3.40;89.20
9151;DHT22;4610;50.006;7.490;2023-02-08T14:29:56;3.40;86.80
9151;DHT22;4610;50.006;7.490;2023-02-08T14:32:24;3.40;83.90
9151;DHT22;4610;50.006;7.490;2023-02-08T14:34:59;3.40;85.90
9151;DHT22;4610;50.006;7.490;2023-02-08T14:37:28;3.40;84.90
9151;DHT22;4610;50.006;7.490;2023-02-08T14:43:03;3.20;88.50
9151;DHT22;4610;50.006;7.490;2023-02-08T14:45:52;3.20;87.70
9151;DHT22;4610;50.006;7.490;2023-02-08T14:48:22;3.10;87.50
9151;DHT22;4610;50.006;7.490;2023-02-08T14:51:01;3.10;88.10
9151;DHT22;4610;50.006;7.490;2023-02-08T14:53:35;3.10;90.00
9151;DHT22;4610;50.006;7.490;2023-02-08T14:56:14;3.10;90.40
9151;DHT22;4610;50.006;7.490;2023-02-08T14:58:45;3.10;90.90
9151;DHT22;4610;50.006;7.490;2023-02-08T15:01:18;3.10;90.50
9151;DHT22;4610;50.006;7.490;2023-02-08T15:03:47;3.00;90.20
9151;DHT22;4610;50.006;7.490;2023-02-08T15:06:54;3.00;91.20
9151;DHT22;4610;50.006;7.490;2023-02-08T15:09:26;3.00;91.20
9151;DHT22;4610;50.006;7.490;2023-02-08T15:12:00;2.90;90.90
9151;DHT22;4610;50.006;7.490;2023-02-08T15:14:29;2.90;91.80
9151;DHT22;4610;50.006;7.490;2023-02-08T15:16:57;2.80;91.50
9151;DHT22;4610;50.006;7.490;2023-02-08T15:19:26;2.80;92.10
9151;DHT22;4610;50.006;7.490;2023-02-08T15:21:53;2.80;92.50
9151;DHT22;4610;50.006;7.490;2023-02-08T15:24:22;2.70;91.90
9151;DHT22;4610;50.006;7.490;2023-02-08T15:26:55;2.70;92.60
9151;DHT22;4610;50.006;7.490;2023-02-08T15:29:23;2.70;92.90
9151;DHT22;4610;50.006;7.490;2023-02-08T15:31:52;2.70;92.90
9151;DHT22;4610;50.006;7.490;2023-02-08T15:34:22;2.70;92.10
9151;DHT22;4610;50.006;7.490;2023-02-08T15:36:51;2.70;92.30
9151;DHT22;4610;50.006;7.490;2023-02-08T15:39:31;2.70;92.90
9151;DHT22;4610;50.006;7.490;2023-02-08T15:42:00;3.20;99.90
9151;DHT22;4610;50.006;7.490;2023-02-08T15:44:29;3.20;95.20
9151;DHT22;4610;50.006;7.490;2023-02-08T15:46:59;3.10;94.50
9151;DHT22;4610;50.006;7.490;2023-02-08T15:49:30;3.00;94.10
9151;DHT22;4610;50.006;7.490;2023-02-08T15:51:57;2.80;94.20
9151;DHT22;4610;50.006;7.490;2023-02-08T15:54:25;2.60;94.40
9151;DHT22;4610;50.006;7.490;2023-02-08T15:56:54;2.50;94.90
9151;DHT22;4610;50.006;7.490;2023-02-08T15:59:23;2.40;95.20
9151;DHT22;4610;50.006;7.490;2023-02-08T16:01:52;2.40;95.10
9151;DHT22;4610;50.006;7.490;2023-02-08T16:04:20;2.40;95.40
9151;DHT22;4610;50.006;7.490;2023-02-08T16:06:49;2.40;95.00
9151;DHT22;4610;50.006;7.490;2023-02-08T16:09:19;2.40;95.00
9151;DHT22;4610;50.006;7.490;2023-02-08T16:11:48;2.30;94.60
9151;DHT22;4610;50.006;7.490;2023-02-08T16:14:17;2.30;94.60
9151;DHT22;4610;50.006;7.490;2023-02-08T16:16:46;2.30;94.60
9151;DHT22;4610;50.006;7.490;2023-02-08T16:19:23;2.20;95.10
9151;DHT22;4610;50.006;7.490;2023-02-08T16:21:51;2.20;95.90
9151;DHT22;4610;50.006;7.490;2023-02-08T16:24:25;2.00;95.00
9151;DHT22;4610;50.006;7.490;2023-02-08T16:26:57;2.50;94.90
9151;DHT22;4610;50.006;7.490;2023-02-08T16:29:27;2.00;94.80
9151;DHT22;4610;50.006;7.490;2023-02-08T16:32:00;2.00;96.40
9151;DHT22;4610;50.006;7.490;2023-02-08T16:34:30;1.80;96.20
9151;DHT22;4610;50.006;7.490;2023-02-08T16:36:58;1.80;95.50
9151;DHT22;4610;50.006;7.490;2023-02-08T16:39:49;1.80;95.20
9151;DHT22;4610;50.006;7.490;2023-02-08T16:42:26;1.70;95.60
9151;DHT22;4610;50.006;7.490;2023-02-08T16:45:02;1.70;96.10
9151;DHT22;4610;50.006;7.490;2023-02-08T16:47:36;1.70;96.50